sensor_id;sensor_type;location;lat;lon;timestamp;temperature;humidity
18654;DHT22;9456;47.824;16.228;2023-09-18T00:00:59;15.20;99.90
18654;DHT22;9456;47.824;16.228;2023-09-18T00:03:28;15.10;99.90
18654;DHT22;9456;47.824;16.228;2023-09-18T00:05:58;15.10;99.90
18654;DHT22;9456;47.824;16.228;2023-09-18T00:08:26;15.10;99.90
18654;DHT22;9456;47.824;16.228;2023-09-18T00:10:55;15.10;99.90
18654;DHT22;9456;47.824;16.228;2023-09-18T00:13:24;15.10;99.90
18654;DHT22;9456;47.824;16.228;2023-09-18T00:15:55;15.00;99.90
18654;DHT22;9456;47.824;16.228;2023-09-18T00:18:24;15.00;99.90
18654;DHT22;9456;47.824;16.228;2023-09-18T00:20:53;15.00;99.90
18654;DHT22;9456;47.824;16.228;2023-09-18T00:23:22;15.00;99.90
18654;DHT22;9456;47.824;16.228;2023-09-18T00:25:51;14.90;99.90
18654;DHT22;9456;47.824;16.228;2023-09-18T00:28:20;14.90;99.90
18654;DHT22;9456;47.824;16.228;2023-09-18T00:30:49;14.90;99.90
18654;DHT22;9456;47.824;16.228;2023-09-18T00:33:18;14.90;99.90
18654;DHT22;9456;47.824;16.228;2023-09-18T00:35:48;14.80;99.90
18654;DHT22;9456;47.824;16.228;2023-09-18T00:38:17;14.90;99.90
18654;DHT22;9456;47.824;16.228;2023-09-18T00:40:46;14.80;99.90
18654;DHT22;9456;47.824;16.228;2023-09-18T00:43:15;14.80;99.90
18654;DHT22;9456;47.824;16.228;2023-09-18T00:45:45;14.80;99.90
18654;DHT22;9456;47.824;16.228;2023-09-18T00:48:12;14.70;99.90
18654;DHT22;9456;47.824;16.228;2023-09-18T00:50:41;14.70;99.90
18654;DHT22;9456;47.824;16.228;2023-09-18T00:53:11;14.70;99.90
18654;DHT22;9456;47.824;16.228;2023-09-18T00:55:39;14.60;99.90
18654;DHT22;9456;47.824;16.228;2023-09-18T00:58:08;14.60;99.90
18654;DHT22;9456;47.824;16.228;2023-09-18T01:00:37;14.50;99.90
18654;DHT22;9456;47.824;16.228;2023-09-18T01:03:06;14.50;99.90
18654;DHT22;9456;47.824;16.228;2023-09-18T01:05:35;14.50;99.90
18654;DHT22;9456;47.824;16.228;2023-09-18T01:08:04;14.40;99.90
18654;DHT22;9456;47.824;16.228;2023-09-18T01:10:36;14.40;99.90
18654;DHT22;9456;47.824;16.228;2023-09-18T01:13:07;14.40;99.90
18654;DHT22;9456;47.824;16.228;2023-09-18T01:15:36;14.30;99.90
18654;DHT22;9456;47.824;16.228;2023-09-18T01:18:04;14.30;99.90
18654;DHT22;9456;47.824;16.228;2023-09-18T01:20:33;14.20;99.90
18654;DHT22;9456;47.824;16.228;2023-09-18T01:23:02;14.20;99.90
18654;DHT22;9456;47.824;16.228;2023-09-18T01:25:32;14.20;99.90
18654;DHT22;9456;47.824;16.228;2023-09-18T01:28:02;14.10;99.90
18654;DHT22;9456;47.824;16.228;2023-09-18T01:30:31;14.10;99.90
18654;DHT22;9456;47.824;16.228;2023-09-18T01:32:59;14.10;99.90
18654;DHT22;9456;47.824;16.228;2023-09-18T01:35:29;14.10;99.90
18654;DHT22;9456;47.824;16.228;2023-09-18T01:37:58;14.10;99.90
18654;DHT22;9456;47.824;16.228;2023-09-18T01:40:26;14.00;99.90
18654;DHT22;9456;47.824;16.228;2023-09-18T01:42:55;14.00;99.90
18654;DHT22;9456;47.824;16.228;2023-09-18T01:45:24;13.90;99.90
18654;DHT22;9456;47.824;16.228;2023-09-18T01:47:53;13.90;99.90
18654;DHT22;9456;47.824;16.228;2023-09-18T01:50:33;13.90;99.90
18654;DHT22;9456;47.824;16.228;2023-09-18T01:53:02;13.80;99.90
18654;DHT22;9456;47.824;16.228;2023-09-18T01:55:31;13.70;99.90
18654;DHT22;9456;47.824;16.228;2023-09-18T01:58:00;13.70;99.90
18654;DHT22;9456;47.824;16.228;2023-09-18T02:00:29;13.70;99.90
18654;DHT22;9456;47.824;16.228;2023-09-18T02:02:58;13.60;99.90
18654;DHT22;9456;47.824;16.228;2023-09-18T02:05:27;13.60;99.90
18654;DHT22;9456;47.824;16.228;2023-09-18T02:07:56;13.60;99.90
18654;DHT22;9456;47.824;16.228;2023-09-18T02:10:25;13.60;99.90
18654;DHT22;9456;47.824;16.228;2023-09-18T02:12:53;13.60;99.90
18654;DHT22;9456;47.824;16.228;2023-09-18T02:15:22;13.60;99.90
18654;DHT22;9456;47.824;16.228;2023-09-18T02:17:51;13.50;99.90
18654;DHT22;9456;47.824;16.228;2023-09-18T02:20:20;13.50;99.90
18654;DHT22;9456;47.824;16.228;2023-09-18T02:22:49;13.50;99.90
18654;DHT22;9456;47.824;16.228;2023-09-18T02:25:18;13.50;99.90
18654;DHT22;9456;47.824;16.228;2023-09-18T02:27:47;13.40;99.90
18654;DHT22;9456;47.824;16.228;2023-09-18T02:30:16;13.40;99.90
18654;DHT22;9456;47.824;16.228;2023-09-18T02:32:45;13.40;99.90
18654;DHT22;9456;47.824;16.228;2023-09-18T02:35:33;13.40;99.90
18654;DHT22;9456;47.824;16.228;2023-09-18T02:38:02;13.40;99.90
18654;DHT22;9456;47.824;16.228;2023-09-18T02:40:31;13.40;99.90
18654;DHT22;9456;47.824;16.228;2023-09-18T02:43:00;13.40;99.90
18654;DHT22;9456;47.824;16.228;2023-09-18T02:45:29;13.40;99.90
18654;DHT22;9456;47.824;16.228;2023-09-18T02:47:58;13.40;99.90
18654;DHT22;9456;47.824;16.228;2023-09-18T02:50:27;13.30;99.90
18654;DHT22;9456;47.824;16.228;2023-09-18T02:52:56;13.30;99.90
18654;DHT22;9456;47.824;16.228;2023-09-18T02:55:25;13.30;99.90
18654;DHT22;9456;47.824;16.228;2023-09-18T02:57:54;13.30;99.90
18654;DHT22;9456;47.824;16.228;2023-09-18T03:00:23;13.30;99.90
18654;DHT22;9456;47.824;16.228;2023-09-18T03:02:52;13.30;99.90
18654;DHT22;9456;47.824;16.228;2023-09-18T03:05:21;13.30;99.90
18654;DHT22;9456;47.824;16.228;2023-09-18T03:07:50;13.30;99.90
18654;DHT22;9456;47.824;16.228;2023-09-18T03:10:19;13.30;99.90
18654;DHT22;9456;47.824;16.228;2023-09-18T03:12:49;13.30;99.90
18654;DHT22;9456;47.824;16.228;2023-09-18T03:15:18;13.30;99.90
18654;DHT22;9456;47.824;16.228;2023-09-18T03:17:48;13.30;99.90
18654;DHT22;9456;47.824;16.228;2023-09-18T03:20:16;13.20;99.90
18654;DHT22;9456;47.824;16.228;2023-09-18T03:22:45;13.20;99.90
18654;DHT22;9456;47.824;16.228;2023-09-18T03:25:14;13.20;99.90
18654;DHT22;9456;47.824;16.228;2023-09-18T03:27:43;13.20;99.90
18654;DHT22;9456;47.824;16.228;2023-09-18T03:30:12;13.20;99.90
18654;DHT22;9456;47.824;16.228;2023-09-18T03:32:41;13.20;99.90
18654;DHT22;9456;47.824;16.228;2023-09-18T03:35:10;13.10;99.90
18654;DHT22;9456;47.824;16.228;2023-09-18T03:37:40;13.10;99.90
18654;DHT22;9456;47.824;16.228;2023-09-18T03:40:10;13.10;99.90
18654;DHT22;9456;47.824;16.228;2023-09-18T03:42:39;13.10;99.90
18654;DHT22;9456;47.824;16.228;2023-09-18T03:45:09;13.10;99.90
18654;DHT22;9456;47.824;16.228;2023-09-18T03:47:38;13.10;99.90
18654;DHT22;9456;47.824;16.228;2023-09-18T03:50:09;13.00;99.90
18654;DHT22;9456;47.824;16.228;2023-09-18T03:52:38;13.00;99.90
18654;DHT22;9456;47.824;16.228;2023-09-18T03:55:08;13.00;99.90
18654;DHT22;9456;47.824;16.228;2023-09-18T03:57:38;13.00;99.90
18654;DHT22;9456;47.824;16.228;2023-09-18T04:00:08;13.00;99.90
18654;DHT22;9456;47.824;16.228;2023-09-18T04:02:37;13.00;99.90
18654;DHT22;9456;47.824;16.228;2023-09-18T04:05:07;13.00;99.90
18654;DHT22;9456;47.824;16.228;2023-09-18T04:07:36;13.00;99.90
18654;DHT22;9456;47.824;16.228;2023-09-18T04:10:06;13.00;99.90
18654;DHT22;9456;47.824;16.228;2023-09-18T04:12:35;13.00;99.90
18654;DHT22;9456;47.824;16.228;2023-09-18T04:15:04;13.00;99.90
18654;DHT22;9456;47.824;16.228;2023-09-18T04:17:33;13.00;99.90
18654;DHT22;9456;47.824;16.228;2023-09-18T04:20:02;13.00;99.90
18654;DHT22;9456;47.824;16.228;2023-09-18T04:22:31;13.00;99.90
18654;DHT22;9456;47.824;16.228;2023-09-18T04:25:00;13.00;99.90
18654;DHT22;9456;47.824;16.228;2023-09-18T04:27:29;13.00;99.90
18654;DHT22;9456;47.824;16.228;2023-09-18T04:29:59;13.00;99.90
18654;DHT22;9456;47.824;16.228;2023-09-18T04:32:29;13.00;99.90
18654;DHT22;9456;47.824;16.228;2023-09-18T04:34:58;12.90;99.90
18654;DHT22;9456;47.824;16.228;2023-09-18T04:37:27;13.00;99.90
18654;DHT22;9456;47.824;16.228;2023-09-18T04:39:56;13.00;99.90
18654;DHT22;9456;47.824;16.228;2023-09-18T04:42:25;13.00;99.90
18654;DHT22;9456;47.824;16.228;2023-09-18T04:44:54;13.00;99.90
18654;DHT22;9456;47.824;16.228;2023-09-18T04:47:23;13.10;99.90
18654;DHT22;9456;47.824;16.228;2023-09-18T04:49:52;13.20;99.90
18654;DHT22;9456;47.824;16.228;2023-09-18T04:52:21;13.20;99.90
18654;DHT22;9456;47.824;16.228;2023-09-18T04:54:54;13.30;99.90
18654;DHT22;9456;47.824;16.228;2023-09-18T04:57:29;13.30;99.90
18654;DHT22;9456;47.824;16.228;2023-09-18T04:59:58;13.40;99.90
18654;DHT22;9456;47.824;16.228;2023-09-18T05:02:27;13.40;99.90
18654;DHT22;9456;47.824;16.228;2023-09-18T05:04:57;13.50;99.90
18654;DHT22;9456;47.824;16.228;2023-09-18T05:07:26;13.60;99.90
18654;DHT22;9456;47.824;16.228;2023-09-18T05:09:55;13.70;99.90
18654;DHT22;9456;47.824;16.228;2023-09-18T05:12:24;13.90;99.90
18654;DHT22;9456;47.824;16.228;2023-09-18T05:14:54;14.10;99.90
18654;DHT22;9456;47.824;16.228;2023-09-18T05:17:27;14.30;99.90
18654;DHT22;9456;47.824;16.228;2023-09-18T05:19:52;14.60;99.90
18654;DHT22;9456;47.824;16.228;2023-09-18T05:22:21;14.90;99.90
18654;DHT22;9456;47.824;16.228;2023-09-18T05:24:50;15.10;99.90
18654;DHT22;9456;47.824;16.228;2023-09-18T05:27:19;15.20;99.90
18654;DHT22;9456;47.824;16.228;2023-09-18T05:29:48;15.30;99.90
18654;DHT22;9456;47.824;16.228;2023-09-18T05:32:17;15.40;99.90
18654;DHT22;9456;47.824;16.228;2023-09-18T05:34:46;15.50;99.90
18654;DHT22;9456;47.824;16.228;2023-09-18T05:37:15;15.50;99.90
18654;DHT22;9456;47.824;16.228;2023-09-18T05:39:44;15.60;99.90
18654;DHT22;9456;47.824;16.228;2023-09-18T05:42:13;15.80;99.90
18654;DHT22;9456;47.824;16.228;2023-09-18T05:44:42;16.00;99.90
18654;DHT22;9456;47.824;16.228;2023-09-18T05:47:11;16.20;99.90
18654;DHT22;9456;47.824;16.228;2023-09-18T05:49:40;16.40;99.90
18654;DHT22;9456;47.824;16.228;2023-09-18T05:52:09;16.70;99.90
18654;DHT22;9456;47.824;16.228;2023-09-18T05:54:38;17.00;99.90
18654;DHT22;9456;47.824;16.228;2023-09-18T05:57:07;17.30;99.90
18654;DHT22;9456;47.824;16.228;2023-09-18T05:59:37;17.70;99.90
18654;DHT22;9456;47.824;16.228;2023-09-18T06:02:06;18.00;99.90
18654;DHT22;9456;47.824;16.228;2023-09-18T06:04:35;18.40;99.90
18654;DHT22;9456;47.824;16.228;2023-09-18T06:07:04;18.80;99.90
18654;DHT22;9456;47.824;16.228;2023-09-18T06:09:33;19.20;99.90
18654;DHT22;9456;47.824;16.228;2023-09-18T06:12:02;19.60;99.90
18654;DHT22;9456;47.824;16.228;2023-09-18T06:14:31;19.90;99.90
18654;DHT22;9456;47.824;16.228;2023-09-18T06:17:01;20.50;99.90
18654;DHT22;9456;47.824;16.228;2023-09-18T06:19:30;20.90;99.90
18654;DHT22;9456;47.824;16.228;2023-09-18T06:21:59;21.30;99.90
18654;DHT22;9456;47.824;16.228;2023-09-18T06:24:28;21.80;99.90
18654;DHT22;9456;47.824;16.228;2023-09-18T06:26:57;22.20;99.90
18654;DHT22;9456;47.824;16.228;2023-09-18T06:29:25;22.40;99.90
18654;DHT22;9456;47.824;16.228;2023-09-18T06:31:54;22.60;99.90
18654;DHT22;9456;47.824;16.228;2023-09-18T06:34:23;23.30;99.90
18654;DHT22;9456;47.824;16.228;2023-09-18T06:36:52;24.00;99.90
18654;DHT22;9456;47.824;16.228;2023-09-18T06:39:21;24.70;99.90
18654;DHT22;9456;47.824;16.228;2023-09-18T06:41:50;25.00;99.90
18654;DHT22;9456;47.824;16.228;2023-09-18T06:44:19;25.40;99.90
18654;DHT22;9456;47.824;16.228;2023-09-18T06:46:48;25.80;99.90
18654;DHT22;9456;47.824;16.228;2023-09-18T06:49:17;26.30;99.90
18654;DHT22;9456;47.824;16.228;2023-09-18T06:51:46;26.70;99.90
18654;DHT22;9456;47.824;16.228;2023-09-18T06:54:15;27.20;99.90
18654;DHT22;9456;47.824;16.228;2023-09-18T06:56:44;27.20;99.90
18654;DHT22;9456;47.824;16.228;2023-09-18T06:59:12;27.60;99.90
18654;DHT22;9456;47.824;16.228;2023-09-18T07:01:44;27.90;99.90
18654;DHT22;9456;47.824;16.228;2023-09-18T07:04:13;27.90;99.90
18654;DHT22;9456;47.824;16.228;2023-09-18T07:06:42;27.80;99.90
18654;DHT22;9456;47.824;16.228;2023-09-18T07:09:11;28.20;99.90
18654;DHT22;9456;47.824;16.228;2023-09-18T07:11:40;28.40;99.90
18654;DHT22;9456;47.824;16.228;2023-09-18T07:14:08;29.00;99.90
18654;DHT22;9456;47.824;16.228;2023-09-18T07:16:37;29.30;99.90
18654;DHT22;9456;47.824;16.228;2023-09-18T07:19:06;29.70;99.90
18654;DHT22;9456;47.824;16.228;2023-09-18T07:21:35;30.00;99.90
18654;DHT22;9456;47.824;16.228;2023-09-18T07:24:05;30.20;99.90
18654;DHT22;9456;47.824;16.228;2023-09-18T07:26:34;30.20;99.90
18654;DHT22;9456;47.824;16.228;2023-09-18T07:29:03;29.40;99.90
18654;DHT22;9456;47.824;16.228;2023-09-18T07:31:32;29.00;99.90
18654;DHT22;9456;47.824;16.228;2023-09-18T07:34:01;28.90;99.90
18654;DHT22;9456;47.824;16.228;2023-09-18T07:36:30;29.00;99.90
18654;DHT22;9456;47.824;16.228;2023-09-18T07:38:59;28.80;99.90
18654;DHT22;9456;47.824;16.228;2023-09-18T07:41:28;28.80;99.90
18654;DHT22;9456;47.824;16.228;2023-09-18T07:43:57;28.60;99.90
18654;DHT22;9456;47.824;16.228;2023-09-18T07:46:26;28.30;99.90
18654;DHT22;9456;47.824;16.228;2023-09-18T07:48:55;27.70;99.90
18654;DHT22;9456;47.824;16.228;2023-09-18T07:51:23;27.50;99.90
18654;DHT22;9456;47.824;16.228;2023-09-18T07:53:52;27.40;99.90
18654;DHT22;9456;47.824;16.228;2023-09-18T07:56:21;27.50;99.90
18654;DHT22;9456;47.824;16.228;2023-09-18T07:58:50;27.60;99.90
18654;DHT22;9456;47.824;16.228;2023-09-18T08:01:19;27.60;99.90
18654;DHT22;9456;47.824;16.228;2023-09-18T08:03:51;27.30;99.90
18654;DHT22;9456;47.824;16.228;2023-09-18T08:06:19;27.30;99.90
18654;DHT22;9456;47.824;16.228;2023-09-18T08:08:48;27.20;99.90
18654;DHT22;9456;47.824;16.228;2023-09-18T08:11:17;27.00;99.90
18654;DHT22;9456;47.824;16.228;2023-09-18T08:13:46;27.00;99.90
18654;DHT22;9456;47.824;16.228;2023-09-18T08:16:15;27.20;99.90
18654;DHT22;9456;47.824;16.228;2023-09-18T08:18:44;27.30;99.90
18654;DHT22;9456;47.824;16.228;2023-09-18T08:21:13;27.30;99.90
18654;DHT22;9456;47.824;16.228;2023-09-18T08:23:42;27.20;99.90
18654;DHT22;9456;47.824;16.228;2023-09-18T08:26:11;27.30;99.90
18654;DHT22;9456;47.824;16.228;2023-09-18T08:28:40;27.40;99.90
18654;DHT22;9456;47.824;16.228;2023-09-18T08:31:10;27.60;99.90
18654;DHT22;9456;47.824;16.228;2023-09-18T08:33:39;27.60;99.90
18654;DHT22;9456;47.824;16.228;2023-09-18T08:36:08;27.60;99.90
18654;DHT22;9456;47.824;16.228;2023-09-18T08:38:37;27.70;99.90
18654;DHT22;9456;47.824;16.228;2023-09-18T08:41:06;27.70;99.90
18654;DHT22;9456;47.824;16.228;2023-09-18T08:43:35;28.00;99.90
18654;DHT22;9456;47.824;16.228;2023-09-18T08:46:04;28.00;99.90
18654;DHT22;9456;47.824;16.228;2023-09-18T08:48:33;28.20;99.90
18654;DHT22;9456;47.824;16.228;2023-09-18T08:51:04;28.40;99.90
18654;DHT22;9456;47.824;16.228;2023-09-18T08:53:34;28.40;99.90
18654;DHT22;9456;47.824;16.228;2023-09-18T08:56:02;28.10;99.90
18654;DHT22;9456;47.824;16.228;2023-09-18T08:58:31;27.90;99.90
18654;DHT22;9456;47.824;16.228;2023-09-18T09:00:59;27.50;99.90
18654;DHT22;9456;47.824;16.228;2023-09-18T09:03:28;27.10;99.90
18654;DHT22;9456;47.824;16.228;2023-09-18T09:06:05;26.70;99.90
18654;DHT22;9456;47.824;16.228;2023-09-18T09:08:34;26.70;99.90
18654;DHT22;9456;47.824;16.228;2023-09-18T09:11:03;26.80;99.90
18654;DHT22;9456;47.824;16.228;2023-09-18T09:13:32;26.70;99.90
18654;DHT22;9456;47.824;16.228;2023-09-18T09:16:01;26.90;99.90
18654;DHT22;9456;47.824;16.228;2023-09-18T09:18:30;27.20;99.90
18654;DHT22;9456;47.824;16.228;2023-09-18T09:21:00;27.50;99.90
18654;DHT22;9456;47.824;16.228;2023-09-18T09:23:29;27.60;99.90
18654;DHT22;9456;47.824;16.228;2023-09-18T09:26:12;27.80;99.90
18654;DHT22;9456;47.824;16.228;2023-09-18T09:28:32;28.00;99.90
18654;DHT22;9456;47.824;16.228;2023-09-18T09:31:04;28.30;99.90
18654;DHT22;9456;47.824;16.228;2023-09-18T09:33:34;28.60;99.90
18654;DHT22;9456;47.824;16.228;2023-09-18T09:36:04;28.60;99.90
18654;DHT22;9456;47.824;16.228;2023-09-18T09:38:32;28.60;99.90
18654;DHT22;9456;47.824;16.228;2023-09-18T09:41:01;28.60;99.90
18654;DHT22;9456;47.824;16.228;2023-09-18T09:43:31;28.70;99.90
18654;DHT22;9456;47.824;16.228;2023-09-18T09:45:59;29.10;99.90
18654;DHT22;9456;47.824;16.228;2023-09-18T09:48:28;29.10;99.90
18654;DHT22;9456;47.824;16.228;2023-09-18T09:50:59;28.70;99.90
18654;DHT22;9456;47.824;16.228;2023-09-18T09:53:47;28.60;99.90
18654;DHT22;9456;47.824;16.228;2023-09-18T09:56:16;28.30;99.90
18654;DHT22;9456;47.824;16.228;2023-09-18T09:58:45;28.10;99.90
18654;DHT22;9456;47.824;16.228;2023-09-18T10:01:14;27.60;99.90
18654;DHT22;9456;47.824;16.228;2023-09-18T10:03:43;28.00;99.90
18654;DHT22;9456;47.824;16.228;2023-09-18T10:06:12;28.70;99.90
18654;DHT22;9456;47.824;16.228;2023-09-18T10:08:42;29.00;99.90
18654;DHT22;9456;47.824;16.228;2023-09-18T10:11:11;28.80;99.90
18654;DHT22;9456;47.824;16.228;2023-09-18T10:13:43;28.30;99.90
18654;DHT22;9456;47.824;16.228;2023-09-18T10:16:10;27.50;99.90
18654;DHT22;9456;47.824;16.228;2023-09-18T10:18:41;27.00;99.90
18654;DHT22;9456;47.824;16.228;2023-09-18T10:21:09;27.00;99.90
18654;DHT22;9456;47.824;16.228;2023-09-18T10:23:44;27.10;99.90
18654;DHT22;9456;47.824;16.228;2023-09-18T10:26:12;27.30;99.90
18654;DHT22;9456;47.824;16.228;2023-09-18T10:28:41;27.50;99.90
18654;DHT22;9456;47.824;16.228;2023-09-18T10:31:10;27.10;99.90
18654;DHT22;9456;47.824;16.228;2023-09-18T10:33:39;26.90;99.90
18654;DHT22;9456;47.824;16.228;2023-09-18T10:36:08;26.90;99.90
18654;DHT22;9456;47.824;16.228;2023-09-18T10:38:37;26.80;99.90
18654;DHT22;9456;47.824;16.228;2023-09-18T10:41:06;26.80;99.90
18654;DHT22;9456;47.824;16.228;2023-09-18T10:43:35;26.90;99.90
18654;DHT22;9456;47.824;16.228;2023-09-18T10:46:03;26.80;99.90
18654;DHT22;9456;47.824;16.228;2023-09-18T10:48:33;26.70;99.90
18654;DHT22;9456;47.824;16.228;2023-09-18T10:51:02;26.60;99.90
18654;DHT22;9456;47.824;16.228;2023-09-18T10:53:32;26.70;99.90
18654;DHT22;9456;47.824;16.228;2023-09-18T10:56:01;26.30;99.90
18654;DHT22;9456;47.824;16.228;2023-09-18T10:58:32;26.20;99.90
18654;DHT22;9456;47.824;16.228;2023-09-18T11:01:01;26.50;99.90
18654;DHT22;9456;47.824;16.228;2023-09-18T11:03:31;26.60;99.90
18654;DHT22;9456;47.824;16.228;2023-09-18T11:06:06;26.80;99.90
18654;DHT22;9456;47.824;16.228;2023-09-18T11:08:36;26.80;99.90
18654;DHT22;9456;47.824;16.228;2023-09-18T11:11:08;26.80;99.90
18654;DHT22;9456;47.824;16.228;2023-09-18T11:13:39;26.60;99.90
18654;DHT22;9456;47.824;16.228;2023-09-18T11:16:19;26.50;99.90
18654;DHT22;9456;47.824;16.228;2023-09-18T11:18:52;26.60;99.90
18654;DHT22;9456;47.824;16.228;2023-09-18T11:21:25;26.80;99.90
18654;DHT22;9456;47.824;16.228;2023-09-18T11:24:01;26.90;99.90
18654;DHT22;9456;47.824;16.228;2023-09-18T11:26:33;26.80;99.90
18654;DHT22;9456;47.824;16.228;2023-09-18T11:29:03;26.70;99.90
18654;DHT22;9456;47.824;16.228;2023-09-18T11:31:45;26.70;99.90
18654;DHT22;9456;47.824;16.228;2023-09-18T11:34:15;26.80;99.90
18654;DHT22;9456;47.824;16.228;2023-09-18T11:36:43;26.80;99.90
18654;DHT22;9456;47.824;16.228;2023-09-18T11:39:12;26.80;99.90
18654;DHT22;9456;47.824;16.228;2023-09-18T11:41:41;26.60;99.90
18654;DHT22;9456;47.824;16.228;2023-09-18T11:44:34;26.60;99.90
18654;DHT22;9456;47.824;16.228;2023-09-18T11:47:10;26.60;99.90
18654;DHT22;9456;47.824;16.228;2023-09-18T11:49:42;26.70;99.90
18654;DHT22;9456;47.824;16.228;2023-09-18T11:52:12;26.80;99.90
18654;DHT22;9456;47.824;16.228;2023-09-18T11:54:41;26.90;99.90
18654;DHT22;9456;47.824;16.228;2023-09-18T11:57:10;27.00;99.90
18654;DHT22;9456;47.824;16.228;2023-09-18T11:59:39;26.90;99.90
18654;DHT22;9456;47.824;16.228;2023-09-18T12:02:08;26.80;99.90
18654;DHT22;9456;47.824;16.228;2023-09-18T12:04:37;26.80;99.90
18654;DHT22;9456;47.824;16.228;2023-09-18T12:07:06;26.80;99.90
18654;DHT22;9456;47.824;16.228;2023-09-18T12:09:35;26.60;99.90
18654;DHT22;9456;47.824;16.228;2023-09-18T12:14:52;26.40;99.90
18654;DHT22;9456;47.824;16.228;2023-09-18T12:17:21;26.50;99.90
18654;DHT22;9456;47.824;16.228;2023-09-18T12:19:54;26.30;99.90
18654;DHT22;9456;47.824;16.228;2023-09-18T12:22:27;26.40;99.90
18654;DHT22;9456;47.824;16.228;2023-09-18T12:25:08;26.50;99.90
18654;DHT22;9456;47.824;16.228;2023-09-18T12:27:38;26.40;99.90
18654;DHT22;9456;47.824;16.228;2023-09-18T12:30:08;26.40;99.90
18654;DHT22;9456;47.824;16.228;2023-09-18T12:32:38;26.40;99.90
18654;DHT22;9456;47.824;16.228;2023-09-18T12:35:08;26.20;99.90
18654;DHT22;9456;47.824;16.228;2023-09-18T12:37:40;26.20;99.90
18654;DHT22;9456;47.824;16.228;2023-09-18T12:40:21;26.20;99.90
18654;DHT22;9456;47.824;16.228;2023-09-18T12:42:50;26.20;99.90
18654;DHT22;9456;47.824;16.228;2023-09-18T12:45:19;26.20;99.90
18654;DHT22;9456;47.824;16.228;2023-09-18T12:47:48;26.00;99.90
18654;DHT22;9456;47.824;16.228;2023-09-18T12:50:17;26.00;99.90
18654;DHT22;9456;47.824;16.228;2023-09-18T12:52:46;25.90;99.90
18654;DHT22;9456;47.824;16.228;2023-09-18T12:55:25;26.00;99.90
18654;DHT22;9456;47.824;16.228;2023-09-18T12:57:53;26.10;99.90
18654;DHT22;9456;47.824;16.228;2023-09-18T13:00:22;26.10;99.90
18654;DHT22;9456;47.824;16.228;2023-09-18T13:02:51;26.00;99.90
18654;DHT22;9456;47.824;16.228;2023-09-18T13:05:21;26.00;99.90
18654;DHT22;9456;47.824;16.228;2023-09-18T13:07:50;26.00;99.90
18654;DHT22;9456;47.824;16.228;2023-09-18T13:10:19;26.00;99.90
18654;DHT22;9456;47.824;16.228;2023-09-18T13:12:49;26.00;99.90
18654;DHT22;9456;47.824;16.228;2023-09-18T13:15:26;26.20;99.90
18654;DHT22;9456;47.824;16.228;2023-09-18T13:17:56;26.20;99.90
18654;DHT22;9456;47.824;16.228;2023-09-18T13:20:25;26.20;99.90
18654;DHT22;9456;47.824;16.228;2023-09-18T13:22:54;26.10;99.90
18654;DHT22;9456;47.824;16.228;2023-09-18T13:25:23;26.00;99.90
18654;DHT22;9456;47.824;16.228;2023-09-18T13:27:53;26.00;99.90
18654;DHT22;9456;47.824;16.228;2023-09-18T13:30:21;25.80;99.90
18654;DHT22;9456;47.824;16.228;2023-09-18T13:32:50;25.90;99.90
18654;DHT22;9456;47.824;16.228;2023-09-18T13:35:18;25.80;99.90
18654;DHT22;9456;47.824;16.228;2023-09-18T13:37:47;25.80;99.90
18654;DHT22;9456;47.824;16.228;2023-09-18T13:40:16;25.80;99.90
18654;DHT22;9456;47.824;16.228;2023-09-18T13:42:45;25.70;99.90
18654;DHT22;9456;47.824;16.228;2023-09-18T13:45:14;25.80;99.90
18654;DHT22;9456;47.824;16.228;2023-09-18T13:47:43;25.80;99.90
18654;DHT22;9456;47.824;16.228;2023-09-18T13:50:12;25.70;99.90
18654;DHT22;9456;47.824;16.228;2023-09-18T13:52:41;25.70;99.90
18654;DHT22;9456;47.824;16.228;2023-09-18T13:55:10;25.70;99.90
18654;DHT22;9456;47.824;16.228;2023-09-18T13:57:39;25.70;99.90
18654;DHT22;9456;47.824;16.228;2023-09-18T14:00:09;25.70;99.90
18654;DHT22;9456;47.824;16.228;2023-09-18T14:02:39;25.70;99.90
18654;DHT22;9456;47.824;16.228;2023-09-18T14:05:08;25.70;99.90
18654;DHT22;9456;47.824;16.228;2023-09-18T14:07:37;25.70;99.90
18654;DHT22;9456;47.824;16.228;2023-09-18T14:10:09;25.70;99.90
18654;DHT22;9456;47.824;16.228;2023-09-18T14:12:38;25.70;99.90
18654;DHT22;9456;47.824;16.228;2023-09-18T14:15:09;25.70;99.90
18654;DHT22;9456;47.824;16.228;2023-09-18T14:17:44;25.70;99.90
18654;DHT22;9456;47.824;16.228;2023-09-18T14:20:13;25.70;99.90
18654;DHT22;9456;47.824;16.228;2023-09-18T14:22:42;25.70;99.90
18654;DHT22;9456;47.824;16.228;2023-09-18T14:25:11;25.70;99.90
18654;DHT22;9456;47.824;16.228;2023-09-18T14:27:40;25.60;99.90
18654;DHT22;9456;47.824;16.228;2023-09-18T14:30:11;25.60;99.90
18654;DHT22;9456;47.824;16.228;2023-09-18T14:32:39;25.50;99.90
18654;DHT22;9456;47.824;16.228;2023-09-18T14:35:09;25.60;99.90
18654;DHT22;9456;47.824;16.228;2023-09-18T14:37:38;25.60;99.90
18654;DHT22;9456;47.824;16.228;2023-09-18T14:40:08;25.60;99.90
18654;DHT22;9456;47.824;16.228;2023-09-18T14:42:37;25.70;99.90
18654;DHT22;9456;47.824;16.228;2023-09-18T14:45:08;25.70;99.90
18654;DHT22;9456;47.824;16.228;2023-09-18T14:47:37;25.70;99.90
18654;DHT22;9456;47.824;16.228;2023-09-18T14:50:07;25.70;99.90
18654;DHT22;9456;47.824;16.228;2023-09-18T14:52:37;25.70;99.90
18654;DHT22;9456;47.824;16.228;2023-09-18T14:55:06;25.70;99.90
18654;DHT22;9456;47.824;16.228;2023-09-18T14:57:35;25.70;99.90
18654;DHT22;9456;47.824;16.228;2023-09-18T15:00:06;25.80;99.90
18654;DHT22;9456;47.824;16.228;2023-09-18T15:02:34;25.70;99.90
18654;DHT22;9456;47.824;16.228;2023-09-18T15:05:04;25.60;99.90
18654;DHT22;9456;47.824;16.228;2023-09-18T15:07:33;25.50;99.90
18654;DHT22;9456;47.824;16.228;2023-09-18T15:10:02;25.40;99.90
18654;DHT22;9456;47.824;16.228;2023-09-18T15:12:32;25.40;99.90
18654;DHT22;9456;47.824;16.228;2023-09-18T15:15:01;25.30;99.90
18654;DHT22;9456;47.824;16.228;2023-09-18T15:17:30;25.30;99.90
18654;DHT22;9456;47.824;16.228;2023-09-18T15:20:00;25.30;99.90
18654;DHT22;9456;47.824;16.228;2023-09-18T15:22:29;25.30;99.90
18654;DHT22;9456;47.824;16.228;2023-09-18T15:24:58;25.30;99.90
18654;DHT22;9456;47.824;16.228;2023-09-18T15:27:27;25.20;99.90
18654;DHT22;9456;47.824;16.228;2023-09-18T15:29:56;25.20;99.90
18654;DHT22;9456;47.824;16.228;2023-09-18T15:32:25;25.10;99.90
18654;DHT22;9456;47.824;16.228;2023-09-18T15:34:54;25.10;99.90
18654;DHT22;9456;47.824;16.228;2023-09-18T15:37:23;25.10;99.90
18654;DHT22;9456;47.824;16.228;2023-09-18T15:39:52;25.10;99.90
18654;DHT22;9456;47.824;16.228;2023-09-18T15:42:21;25.00;99.90
18654;DHT22;9456;47.824;16.228;2023-09-18T15:44:50;25.00;99.90
18654;DHT22;9456;47.824;16.228;2023-09-18T15:47:18;25.00;99.90